.
WxDataArchive / Data Records for 2016-05-02
2016-05-01 May 2016 2016-05-03

Data Records for Monday, 02 May 2016

Time	Temp	Chill	HIndex	Humid	Dewpt	 Wind 	HiWind	WindDir	Rain 	Barom
-----	----	-----	------	-----	-----	------	------	-------	-----	-----
00:00	51.6	51.6	51.6	94	49.9	2	6	112	0.02	29.880 
00:05	51.4	51.4	51.4	94	49.7	2	7	112	0.01	29.880 
00:10	51.4	51.4	51.4	95	50.0	2	5	45	0.02	29.880 
00:15	51.4	51.4	51.4	95	50.0	1	5	90	0.01	29.890 
00:20	51.4	51.4	51.4	95	50.0	2	5	90	0.02	29.890 
00:25	51.3	51.3	51.3	95	49.9	3	6	90	0.01	29.890 
00:30	51.1	51.1	51.1	95	49.7	2	5	90	0.00	29.889 
00:35	51.0	51.0	51.0	95	49.6	1	4	90	0.00	29.889 
00:40	51.0	51.0	51.0	95	49.6	0	4	90	0.01	29.889 
00:45	51.0	51.0	51.0	95	49.6	0	2	90	0.00	29.909 
00:50	51.0	51.0	51.0	95	49.6	0	2	90	0.01	29.909 
00:55	51.0	51.0	51.0	95	49.6	2	6	90	0.01	29.909 
01:00	50.8	50.8	50.8	95	49.4	1	4	135	0.02	29.914 
01:05	50.8	50.8	50.8	95	49.4	1	4	135	0.01	29.914 
01:10	50.8	50.8	50.8	95	49.4	0	2	135	0.02	29.914 
01:15	50.8	50.8	50.8	95	49.4	0	2	135	0.01	29.906 
01:20	50.8	50.8	50.8	95	49.4	1	4	135	0.01	29.906 
01:25	50.7	50.7	50.7	95	49.3	2	4	135	0.01	29.906 
01:30	50.7	50.7	50.7	95	49.3	1	4	68	0.00	29.900 
01:35	50.7	50.7	50.7	95	49.3	0	2	68	0.00	29.900 
01:40	50.7	50.7	50.7	95	49.3	2	5	68	0.00	29.900 
01:45	50.5	50.5	50.5	95	49.1	0	2	90	0.02	29.893 
01:50	50.5	50.5	50.5	95	49.1	0	1	90	0.00	29.893 
01:55	50.5	50.5	50.5	95	49.1	0	2	90	0.00	29.893 
02:00	50.4	50.4	50.4	95	49.0	1	5	90	0.00	29.902 
02:05	50.1	50.1	50.1	95	48.7	1	3	90	0.00	29.902 
02:10	49.9	49.9	49.9	95	48.5	1	5	90	0.00	29.902 
02:15	49.6	49.6	49.6	95	48.2	1	5	90	0.00	29.903 
02:20	49.5	49.5	49.5	95	48.1	0	2	90	0.00	29.903 
02:25	49.5	49.5	49.5	95	48.1	0	2	90	0.00	29.903 
02:30	49.4	49.4	49.4	96	48.3	0	1	90	0.00	29.918 
02:35	49.4	49.4	49.4	95	48.0	0	1	90	0.00	29.918 
02:40	49.4	49.4	49.4	96	48.3	0	2	90	0.00	29.918 
02:45	49.4	49.4	49.4	96	48.3	0	1	90	0.00	29.916 
02:50	49.5	49.5	49.5	96	48.4	0	2	90	0.00	29.916 
02:55	49.5	49.5	49.5	96	48.4	0	1	90	0.00	29.916 
03:00	49.4	49.4	49.4	96	48.3	0	1	90	0.00	29.903 
03:05	49.2	49.2	49.2	96	48.1	0	3	90	0.00	29.903 
03:10	49.2	49.2	49.2	96	48.1	1	4	90	0.00	29.903 
03:15	49.1	49.1	49.1	96	48.0	1	7	112	0.00	29.888 
03:20	49.1	49.1	49.1	96	48.0	0	2	112	0.00	29.888 
03:25	49.1	49.1	49.1	96	48.0	1	5	112	0.00	29.888 
03:30	49.1	49.1	49.1	96	48.0	0	0	---	0.00	29.873 
03:35	49.2	49.2	49.2	96	48.1	0	2	112	0.00	29.873 
03:40	49.1	49.1	49.1	96	48.0	0	2	112	0.00	29.873 
03:45	48.9	48.9	48.9	96	47.8	0	2	112	0.00	29.870 
03:50	48.9	48.9	48.9	96	47.8	0	2	112	0.00	29.870 
03:55	48.8	48.8	48.8	96	47.7	1	4	112	0.00	29.870 
04:00	48.8	48.8	48.8	96	47.7	1	4	112	0.00	29.868 
04:05	48.8	48.8	48.8	96	47.7	0	2	112	0.00	29.868 
04:10	48.6	48.6	48.6	96	47.5	0	1	112	0.00	29.868 
04:15	48.6	48.6	48.6	96	47.5	0	2	112	0.00	29.871 
04:20	48.5	48.5	48.5	96	47.4	0	2	112	0.00	29.871 
04:25	48.5	48.5	48.5	96	47.4	0	1	112	0.00	29.871 
04:30	48.3	48.3	48.3	96	47.2	0	2	112	0.00	29.874 
04:35	48.3	48.3	48.3	96	47.2	0	2	112	0.00	29.874 
04:40	48.3	48.3	48.3	96	47.2	0	3	112	0.00	29.874 
04:45	48.2	48.2	48.2	96	47.1	0	1	112	0.00	29.879 
04:50	48.2	48.2	48.2	96	47.1	0	0	---	0.00	29.879 
04:55	48.2	48.2	48.2	96	47.1	0	1	112	0.00	29.879 
05:00	48.0	48.0	48.0	96	46.9	0	2	112	0.00	29.890 
05:05	48.0	48.0	48.0	96	46.9	0	1	112	0.00	29.890 
05:10	48.0	48.0	48.0	96	46.9	0	1	112	0.00	29.890 
05:15	48.0	48.0	48.0	96	46.9	0	1	112	0.00	29.904 
05:20	48.0	48.0	48.0	96	46.9	0	1	112	0.00	29.904 
05:25	48.0	48.0	48.0	96	46.9	0	1	112	0.00	29.904 
05:30	48.0	48.0	48.0	96	46.9	0	0	---	0.00	29.907 
05:35	48.0	48.0	48.0	96	46.9	0	1	112	0.00	29.907 
05:40	48.0	48.0	48.0	96	46.9	1	3	112	0.00	29.907 
05:45	48.0	48.0	48.0	96	46.9	0	1	112	0.00	29.920 
05:50	47.9	47.9	47.9	96	46.8	0	2	112	0.00	29.920 
05:55	48.0	48.0	48.0	96	46.9	0	1	112	0.00	29.920 
06:00	47.9	47.9	47.9	96	46.8	0	1	112	0.00	29.920 
06:05	47.9	47.9	47.9	96	46.8	0	2	112	0.00	29.920 
06:10	47.9	47.9	47.9	96	46.8	0	2	112	0.00	29.920 
06:15	47.9	47.9	47.9	96	46.8	0	1	112	0.00	29.922 
06:20	47.9	47.9	47.9	96	46.8	0	0	---	0.00	29.922 
06:25	47.7	47.7	47.7	96	46.6	0	2	112	0.00	29.922 
06:30	47.7	47.7	47.7	96	46.6	0	2	112	0.00	29.923 
06:35	47.6	47.6	47.6	96	46.5	0	2	112	0.00	29.923 
06:40	47.4	47.4	47.4	95	46.0	0	2	112	0.00	29.923 
06:45	47.4	47.4	47.4	95	46.0	0	1	112	0.00	29.925 
06:50	47.4	47.4	47.4	96	46.3	0	0	---	0.00	29.925 
06:55	47.4	47.4	47.4	96	46.3	0	2	112	0.00	29.925 
07:00	47.3	47.3	47.3	96	46.2	0	1	112	0.00	29.936 
07:05	47.3	47.3	47.3	96	46.2	0	2	112	0.00	29.936 
07:10	47.1	47.1	47.1	95	45.7	0	2	112	0.00	29.936 
07:15	47.1	47.1	47.1	95	45.7	0	2	112	0.00	29.940 
07:20	47.1	47.1	47.1	95	45.7	0	2	112	0.00	29.940 
07:25	47.1	47.1	47.1	95	45.7	0	1	112	0.00	29.940 
07:30	47.1	47.1	47.1	95	45.7	0	1	112	0.00	29.949 
07:35	47.1	47.1	47.1	95	45.7	0	1	112	0.01	29.949 
07:40	47.1	47.1	47.1	96	46.0	0	0	---	0.02	29.949 
07:45	47.0	47.0	47.0	95	45.6	0	2	112	0.00	29.956 
07:50	47.0	47.0	47.0	95	45.6	0	0	---	0.01	29.956 
07:55	47.0	47.0	47.0	95	45.6	0	1	112	0.00	29.956 
08:00	47.0	47.0	47.0	96	45.9	0	2	112	0.00	29.957 
08:05	46.8	46.8	46.8	95	45.4	0	1	112	0.00	29.957 
08:10	46.5	46.5	46.5	95	45.1	0	2	112	0.00	29.957 
08:15	46.5	46.5	46.5	95	45.1	0	1	112	0.00	29.964 
08:20	46.5	46.5	46.5	96	45.4	0	1	112	0.00	29.964 
08:25	46.5	46.5	46.5	96	45.4	0	2	112	0.00	29.964 
08:30	46.7	46.7	46.7	96	45.6	0	0	---	0.00	29.966 
08:35	46.8	46.8	46.8	96	45.7	0	2	112	0.00	29.966 
08:40	46.7	46.7	46.7	96	45.6	0	2	112	0.00	29.966 
08:45	46.7	46.7	46.7	96	45.6	0	1	112	0.00	29.971 
08:50	46.8	46.8	46.8	96	45.7	0	3	112	0.00	29.971 
08:55	46.7	46.7	46.7	96	45.6	0	3	112	0.00	29.971 
09:00	46.7	46.7	46.7	96	45.6	0	2	112	0.00	29.970 
09:05	46.7	46.7	46.7	96	45.6	0	2	112	0.00	29.970 
09:10	46.8	46.8	46.8	96	45.7	0	1	112	0.00	29.970 
09:15	47.0	47.0	47.0	96	45.9	0	2	112	0.00	29.971 
09:20	47.0	47.0	47.0	96	45.9	0	1	112	0.00	29.971 
09:25	47.0	47.0	47.0	96	45.9	0	2	112	0.00	29.971 
09:30	47.0	47.0	47.0	96	45.9	0	2	112	0.00	29.973 
09:35	47.1	47.1	47.1	96	46.0	0	2	112	0.00	29.973 
09:40	47.1	47.1	47.1	96	46.0	0	2	112	0.00	29.973 
09:45	47.1	47.1	47.1	96	46.0	0	2	112	0.00	29.977 
09:50	47.1	47.1	47.1	96	46.0	0	1	112	0.00	29.977 
09:55	47.3	47.3	47.3	96	46.2	0	2	112	0.00	29.977 
10:00	47.3	47.3	47.3	96	46.2	0	1	112	0.00	29.977 
10:05	47.6	47.6	47.6	96	46.5	0	2	112	0.00	29.977 
10:10	47.6	47.6	47.6	96	46.5	0	0	---	0.00	29.977 
10:15	47.6	47.6	47.6	96	46.5	0	1	112	0.00	29.974 
10:20	47.7	47.7	47.7	96	46.6	0	1	112	0.00	29.974 
10:25	47.6	47.6	47.6	96	46.5	0	1	112	0.00	29.974 
10:30	47.6	47.6	47.6	96	46.5	0	2	112	0.00	29.972 
10:35	47.6	47.6	47.6	96	46.5	0	0	---	0.00	29.972 
10:40	47.7	47.7	47.7	96	46.6	1	4	112	0.00	29.972 
10:45	47.9	47.9	47.9	96	46.8	0	2	112	0.00	29.973 
10:50	47.9	47.9	47.9	96	46.8	1	4	112	0.00	29.973 
10:55	47.9	47.9	47.9	96	46.8	1	4	112	0.00	29.973 
11:00	47.9	47.9	47.9	96	46.8	0	2	112	0.00	29.963 
11:05	48.0	48.0	48.0	96	46.9	0	3	112	0.00	29.963 
11:10	48.0	48.0	48.0	96	46.9	1	3	112	0.00	29.963 
11:15	48.0	48.0	48.0	96	46.9	0	2	112	0.00	29.962 
11:20	48.2	48.2	48.2	96	47.1	1	3	112	0.00	29.962 
11:25	48.2	48.2	48.2	96	47.1	0	2	112	0.00	29.962 
11:30	48.2	48.2	48.2	96	47.1	0	2	112	0.00	29.974 
11:35	48.3	48.3	48.3	96	47.2	0	3	112	0.00	29.974 
11:40	48.3	48.3	48.3	96	47.2	0	1	112	0.00	29.974 
11:45	48.5	48.5	48.5	95	47.1	1	3	112	0.00	29.966 
11:50	48.6	48.6	48.6	96	47.5	0	1	112	0.00	29.966 
11:55	48.8	48.8	48.8	96	47.7	0	1	112	0.00	29.966 
12:00	48.8	48.8	48.8	95	47.4	1	4	112	0.00	29.969 
12:05	48.8	48.8	48.8	95	47.4	1	2	112	0.00	29.969 
12:10	48.8	48.8	48.8	95	47.4	0	3	112	0.00	29.969 
12:15	48.8	48.8	48.8	95	47.4	1	4	112	0.00	29.970 
12:20	48.8	48.8	48.8	95	47.4	1	3	112	0.00	29.970 
12:25	48.8	48.8	48.8	95	47.4	1	3	112	0.00	29.970 
12:30	48.9	48.9	48.9	95	47.5	1	3	112	0.00	29.963 
12:35	48.8	48.8	48.8	95	47.4	0	2	112	0.00	29.963 
12:40	48.8	48.8	48.8	95	47.4	0	3	112	0.00	29.963 
12:45	48.9	48.9	48.9	95	47.5	0	2	112	0.00	29.974 
12:50	48.9	48.9	48.9	95	47.5	0	1	112	0.00	29.974 
12:55	49.1	49.1	49.1	95	47.7	0	3	112	0.00	29.974 
13:00	49.1	49.1	49.1	95	47.7	0	3	112	0.00	29.977 
13:05	49.2	49.2	49.2	95	47.8	0	2	112	0.00	29.977 
13:10	49.2	49.2	49.2	95	47.8	0	2	112	0.00	29.977 
13:15	49.2	49.2	49.2	95	47.8	0	1	112	0.00	29.986 
13:20	49.4	49.4	49.4	95	48.0	1	3	112	0.00	29.986 
13:25	49.4	49.4	49.4	94	47.7	0	0	---	0.00	29.986 
13:30	49.5	49.5	49.5	94	47.8	0	1	112	0.00	29.986 
13:35	49.5	49.5	49.5	94	47.8	0	1	112	0.00	29.986 
13:40	49.6	49.6	49.6	94	47.9	0	1	112	0.00	29.986 
13:45	49.6	49.6	49.6	94	47.9	0	1	112	0.00	29.992 
13:50	49.6	49.6	49.6	94	47.9	0	2	112	0.00	29.992 
13:55	49.6	49.6	49.6	94	47.9	0	1	112	0.00	29.992 
14:00	49.6	49.6	49.6	93	47.7	0	1	112	0.00	29.996 
14:05	49.6	49.6	49.6	93	47.7	0	1	112	0.00	29.996 
14:10	49.8	49.8	49.8	93	47.9	0	0	---	0.00	29.996 
14:15	49.9	49.9	49.9	93	48.0	0	0	---	0.00	29.985 
14:20	49.9	49.9	49.9	93	48.0	0	0	---	0.00	29.985 
14:25	50.1	50.1	50.1	93	48.2	0	0	---	0.00	29.985 
14:30	50.1	50.1	50.1	93	48.2	0	1	112	0.01	29.982 
14:35	50.1	50.1	50.1	93	48.2	0	1	112	0.00	29.982 
14:40	50.1	50.1	50.1	93	48.2	0	0	---	0.00	29.982 
14:45	50.2	50.2	50.2	94	48.5	0	1	112	0.00	29.980 
14:50	50.4	50.4	50.4	93	48.5	0	1	112	0.00	29.980 
14:55	50.4	50.4	50.4	93	48.5	0	0	---	0.00	29.980 
15:00	50.5	50.5	50.5	93	48.6	0	1	112	0.00	29.995 
15:05	50.4	50.4	50.4	93	48.5	0	1	112	0.00	29.995 
15:10	50.4	50.4	50.4	93	48.5	0	2	112	0.00	29.995 
15:15	50.4	50.4	50.4	93	48.5	0	2	112	0.00	29.991 
15:20	50.4	50.4	50.4	93	48.5	0	3	112	0.00	29.991 
15:25	50.5	50.5	50.5	94	48.8	0	1	112	0.00	29.991 
15:30	50.7	50.7	50.7	94	49.0	0	3	112	0.00	29.985 
15:35	50.7	50.7	50.7	93	48.7	0	2	112	0.00	29.985 
15:40	50.4	50.4	50.4	94	48.7	0	2	112	0.00	29.985 
15:45	50.2	50.2	50.2	94	48.5	0	2	112	0.00	29.986 
15:50	50.2	50.2	50.2	94	48.5	0	1	112	0.00	29.986 
15:55	50.2	50.2	50.2	94	48.5	1	3	112	0.00	29.986 
16:00	50.4	50.4	50.4	94	48.7	0	1	112	0.00	29.971 
16:05	50.5	50.5	50.5	94	48.8	0	1	112	0.00	29.971 
16:10	50.7	50.7	50.7	94	49.0	0	1	112	0.00	29.971 
16:15	50.8	50.8	50.8	94	49.1	0	1	112	0.00	29.972 
16:20	51.0	51.0	51.0	94	49.3	0	2	112	0.00	29.972 
16:25	51.3	51.3	51.3	94	49.6	0	3	112	0.00	29.972 
16:30	51.4	51.4	51.4	94	49.7	0	2	112	0.00	29.960 
16:35	51.7	51.7	51.7	93	49.7	0	2	112	0.00	29.960 
16:40	52.0	52.0	52.0	93	50.0	0	3	112	0.00	29.960 
16:45	52.5	52.5	52.5	92	50.2	0	2	112	0.00	29.955 
16:50	52.5	52.5	52.5	92	50.2	0	3	112	0.00	29.955 
16:55	52.8	52.8	52.8	91	50.2	0	4	112	0.00	29.955 
17:00	52.6	52.6	52.6	90	49.7	0	2	338	0.00	29.955 
17:05	52.6	52.6	52.6	90	49.7	1	3	90	0.00	29.955 
17:10	52.6	52.6	52.6	88	49.1	1	4	90	0.00	29.955 
17:15	52.8	52.8	52.8	88	49.3	1	4	112	0.00	29.951 
17:20	52.6	52.6	52.6	87	48.8	1	4	112	0.00	29.951 
17:25	52.5	52.5	52.5	86	48.4	1	5	112	0.00	29.951 
17:30	52.5	52.5	52.5	86	48.4	0	2	112	0.00	29.950 
17:35	52.5	52.5	52.5	86	48.4	0	2	112	0.00	29.950 
17:40	52.6	52.6	52.6	86	48.5	0	3	112	0.00	29.950 
17:45	52.5	52.5	52.5	86	48.4	0	2	112	0.00	29.944 
17:50	52.3	52.3	52.3	86	48.2	0	2	112	0.00	29.944 
17:55	52.2	52.2	52.2	86	48.1	0	1	112	0.00	29.944 
18:00	52.0	52.0	52.0	86	47.9	0	1	112	0.00	29.953 
18:05	51.7	51.7	51.7	87	48.0	0	1	112	0.00	29.953 
18:10	51.6	51.6	51.6	87	47.9	0	2	112	0.00	29.953 
18:15	51.4	51.4	51.4	88	48.0	0	2	90	0.00	29.950 
18:20	51.4	51.4	51.4	88	48.0	0	2	90	0.00	29.950 
18:25	51.3	51.3	51.3	88	47.9	0	1	90	0.00	29.950 
18:30	51.3	51.3	51.3	89	48.2	0	2	90	0.00	29.954 
18:35	51.1	51.1	51.1	89	48.0	1	3	90	0.00	29.954 
18:40	51.0	51.0	51.0	89	47.9	0	1	90	0.00	29.954 
18:45	50.8	50.8	50.8	89	47.7	0	1	90	0.00	29.959 
18:50	50.8	50.8	50.8	89	47.7	0	1	90	0.00	29.959 
18:55	50.7	50.7	50.7	89	47.6	0	1	90	0.00	29.959 
19:00	50.7	50.7	50.7	89	47.6	0	1	90	0.00	29.962 
19:05	50.7	50.7	50.7	90	47.9	0	1	90	0.00	29.962 
19:10	50.7	50.7	50.7	90	47.9	0	2	90	0.00	29.962 
19:15	50.8	50.8	50.8	90	48.0	0	1	90	0.00	29.960 
19:20	50.8	50.8	50.8	90	48.0	0	1	90	0.00	29.960 
19:25	50.8	50.8	50.8	90	48.0	0	1	90	0.00	29.960 
19:30	50.7	50.7	50.7	90	47.9	0	1	90	0.00	29.959 
19:35	50.7	50.7	50.7	90	47.9	0	1	90	0.00	29.959 
19:40	50.5	50.5	50.5	91	48.0	0	1	90	0.00	29.959 
19:45	50.5	50.5	50.5	91	48.0	0	3	90	0.00	29.959 
19:50	50.4	50.4	50.4	91	47.9	0	1	90	0.00	29.959 
19:55	50.4	50.4	50.4	91	47.9	0	2	90	0.00	29.959 
20:00	50.2	50.2	50.2	91	47.7	0	0	---	0.00	29.959 
20:05	50.2	50.2	50.2	91	47.7	0	1	90	0.00	29.959 
20:10	50.2	50.2	50.2	92	48.0	0	1	90	0.00	29.959 
20:15	50.2	50.2	50.2	92	48.0	0	1	90	0.00	29.959 
20:20	50.2	50.2	50.2	92	48.0	0	0	---	0.00	29.959 
20:25	50.2	50.2	50.2	92	48.0	0	3	90	0.00	29.959 
20:30	50.1	50.1	50.1	92	47.9	0	1	90	0.00	29.959 
20:35	49.9	49.9	49.9	92	47.7	0	1	90	0.00	29.959 
20:40	49.8	49.8	49.8	92	47.6	0	2	90	0.00	29.959 
20:45	49.8	49.8	49.8	92	47.6	0	2	90	0.00	29.957 
20:50	49.6	49.6	49.6	92	47.4	0	1	90	0.00	29.957 
20:55	49.6	49.6	49.6	92	47.4	0	1	90	0.00	29.957 
21:00	49.6	49.6	49.6	92	47.4	0	1	90	0.00	29.961 
21:05	49.6	49.6	49.6	92	47.4	0	1	90	0.00	29.961 
21:10	49.6	49.6	49.6	92	47.4	0	2	90	0.00	29.961 
21:15	49.6	49.6	49.6	92	47.4	0	1	90	0.00	29.956 
21:20	49.6	49.6	49.6	93	47.7	0	0	---	0.00	29.956 
21:25	49.5	49.5	49.5	93	47.6	0	2	90	0.00	29.956 
21:30	49.5	49.5	49.5	93	47.6	0	2	90	0.00	29.957 
21:35	49.5	49.5	49.5	93	47.6	0	2	90	0.00	29.957 
21:40	49.5	49.5	49.5	93	47.6	0	2	90	0.00	29.957 
21:45	49.5	49.5	49.5	93	47.6	0	2	90	0.00	29.955 
21:50	49.5	49.5	49.5	93	47.6	0	2	90	0.00	29.955 
21:55	49.4	49.4	49.4	93	47.5	0	3	90	0.00	29.955 
22:00	49.4	49.4	49.4	93	47.5	0	1	90	0.00	29.959 
22:05	49.4	49.4	49.4	93	47.5	0	1	90	0.00	29.959 
22:10	49.4	49.4	49.4	93	47.5	0	1	90	0.00	29.959 
22:15	49.4	49.4	49.4	93	47.5	0	2	90	0.00	29.959 
22:20	49.4	49.4	49.4	93	47.5	0	2	90	0.00	29.959 
22:25	49.4	49.4	49.4	93	47.5	0	1	90	0.00	29.959 
22:30	49.4	49.4	49.4	93	47.5	0	2	90	0.00	29.961 
22:35	49.4	49.4	49.4	93	47.5	0	0	---	0.00	29.961 
22:40	49.4	49.4	49.4	93	47.5	0	0	---	0.00	29.961 
22:45	49.2	49.2	49.2	93	47.3	0	0	---	0.00	29.960 
22:50	49.2	49.2	49.2	93	47.3	0	0	---	0.00	29.960 
22:55	49.2	49.2	49.2	93	47.3	0	0	---	0.00	29.960 
23:00	49.2	49.2	49.2	93	47.3	0	0	---	0.00	29.962 
23:05	49.2	49.2	49.2	93	47.3	0	0	---	0.00	29.962 
23:10	49.2	49.2	49.2	93	47.3	0	0	---	0.00	29.962 
23:15	49.2	49.2	49.2	93	47.3	0	0	---	0.00	29.958 
23:20	49.2	49.2	49.2	93	47.3	0	0	---	0.00	29.958 
23:25	49.2	49.2	49.2	93	47.3	0	0	---	0.00	29.958 
23:30	49.4	49.4	49.4	93	47.5	0	0	---	0.00	29.956 
23:35	49.4	49.4	49.4	93	47.5	0	0	---	0.00	29.956 
23:40	49.4	49.4	49.4	93	47.5	0	0	---	0.00	29.956 
23:45	49.4	49.4	49.4	93	47.5	0	0	---	0.00	29.958 
23:50	49.2	49.2	49.2	93	47.3	0	0	---	0.00	29.958 
23:55	49.2	49.2	49.2	93	47.3	0	0	---	0.00	29.958 

CoCoRaHS
IN-AL-39
A2 Web Hosting
Creative Commons License
GoDaddy
search engine by freefind advanced

loaded 2018-11-19 11:40:21 • last modified 2010-11-18 10:43:29
Privacy PolicyDisclaimer
• wx.awcolley.com is powered by PmWiki v.2002016 •
• all content (unless otherwise noted) © 2018 A W Colley